Time;durP1;ratioP1;P1;durP2;ratioP2;P2;SDS_P1;SDS_P2;PMS_P1;PMS_P2;Temp;Humidity;BMP_temperature;BMP_pressure;BME280_temperature;BME280_humidity;BME280_pressure;Samples;Min_cycle;Max_cycle;Signal;HPM_P1;HPM_P2
2024/01/24 00:00:51;;;;;;;8.10;5.87;;;;;;;;;;5110824;28;20207;-78
2024/01/24 00:03:17;;;;;;;8.40;5.73;;;;;;;;;;5111112;28;20195;-78
2024/01/24 00:05:46;;;;;;;8.13;6.63;;;;;;;;;;5110745;28;20684;-78
2024/01/24 00:08:12;;;;;;;6.07;5.30;;;;;;;;;;5097665;28;20216;-78
2024/01/24 00:10:39;;;;;;;8.40;6.37;;;;;;;;;;5110467;28;20199;-77
2024/01/24 00:13:06;;;;;;;6.63;4.67;;;;;;;;;;5110798;28;20583;-78
2024/01/24 00:15:33;;;;;;;6.50;5.40;;;;;;;;;;5110930;28;20199;-78
2024/01/24 00:18:00;;;;;;;8.63;6.13;;;;;;;;;;5111115;28;20196;-78
2024/01/24 00:20:26;;;;;;;8.17;5.40;;;;;;;;;;5110371;28;20199;-78
2024/01/24 00:22:57;;;;;;;6.67;5.37;;;;;;;;;;5110481;28;20682;-78
2024/01/24 00:25:24;;;;;;;8.37;4.97;;;;;;;;;;5114782;28;20227;-78
2024/01/24 00:27:51;;;;;;;6.93;4.83;;;;;;;;;;5114715;28;20234;-78
2024/01/24 00:30:18;;;;;;;6.43;4.87;;;;;;;;;;5114773;28;20227;-78
2024/01/24 00:32:45;;;;;;;5.20;4.40;;;;;;;;;;5114603;28;20211;-78
2024/01/24 00:35:12;;;;;;;5.00;4.50;;;;;;;;;;5114750;28;20196;-78
2024/01/24 00:37:39;;;;;;;6.70;4.97;;;;;;;;;;5114948;28;20264;-78
2024/01/24 00:40:09;;;;;;;6.33;4.67;;;;;;;;;;5114291;28;20196;-78
2024/01/24 00:42:35;;;;;;;6.57;4.40;;;;;;;;;;5114267;28;20209;-78
2024/01/24 00:45:02;;;;;;;6.03;4.83;;;;;;;;;;5114143;28;20223;-78
2024/01/24 00:47:29;;;;;;;7.33;4.70;;;;;;;;;;5114519;28;20196;-78
2024/01/24 00:49:55;;;;;;;4.73;4.27;;;;;;;;;;5113182;28;20204;-78
2024/01/24 00:52:22;;;;;;;4.47;3.90;;;;;;;;;;5114128;28;20253;-78
2024/01/24 00:54:49;;;;;;;6.90;5.00;;;;;;;;;;5114187;28;20196;-77
2024/01/24 00:57:17;;;;;;;6.63;4.50;;;;;;;;;;5113965;28;20207;-77
2024/01/24 00:59:44;;;;;;;7.53;5.37;;;;;;;;;;5113291;28;20559;-78
2024/01/24 01:02:11;;;;;;;4.77;3.90;;;;;;;;;;5114371;28;20684;-78
2024/01/24 01:04:37;;;;;;;5.37;4.57;;;;;;;;;;5113715;28;20215;-78
2024/01/24 01:07:04;;;;;;;6.23;4.87;;;;;;;;;;5114024;28;20204;-77
2024/01/24 01:09:31;;;;;;;6.43;4.73;;;;;;;;;;5113565;28;20264;-78
2024/01/24 01:11:58;;;;;;;4.60;4.10;;;;;;;;;;5113986;28;20278;-78
2024/01/24 01:14:26;;;;;;;6.53;4.83;;;;;;;;;;5113727;28;20265;-78
2024/01/24 01:16:55;;;;;;;7.47;3.97;;;;;;;;;;5114390;28;20207;-78
2024/01/24 01:19:21;;;;;;;6.90;4.53;;;;;;;;;;5113647;28;20213;-78
2024/01/24 01:21:48;;;;;;;5.40;4.73;;;;;;;;;;5113906;28;20206;-78
2024/01/24 01:24:16;;;;;;;7.30;4.37;;;;;;;;;;5113115;28;20227;-78
2024/01/24 01:26:42;;;;;;;5.27;4.17;;;;;;;;;;5114008;28;20207;-78
2024/01/24 01:29:09;;;;;;;4.33;3.90;;;;;;;;;;5112815;28;20640;-77
2024/01/24 01:31:37;;;;;;;4.57;4.10;;;;;;;;;;5113632;28;20195;-78
2024/01/24 01:34:04;;;;;;;4.87;4.23;;;;;;;;;;5113499;28;20221;-78
2024/01/24 01:36:31;;;;;;;7.20;5.00;;;;;;;;;;5112410;28;20677;-78
2024/01/24 01:38:58;;;;;;;4.13;3.60;;;;;;;;;;5113414;28;20196;-78
2024/01/24 01:41:25;;;;;;;5.27;4.73;;;;;;;;;;5113482;28;20203;-78
2024/01/24 01:43:53;;;;;;;4.67;3.63;;;;;;;;;;5099669;28;20204;-78
2024/01/24 01:46:20;;;;;;;4.13;3.67;;;;;;;;;;5113441;28;20200;-78
2024/01/24 01:48:49;;;;;;;4.53;4.00;;;;;;;;;;5113215;28;20200;-78
2024/01/24 01:51:16;;;;;;;4.80;3.50;;;;;;;;;;5112803;28;20214;-78
2024/01/24 01:53:44;;;;;;;4.17;3.70;;;;;;;;;;5112971;28;20200;-78
2024/01/24 01:56:12;;;;;;;4.47;3.50;;;;;;;;;;5113354;28;20203;-78
2024/01/24 01:58:39;;;;;;;5.17;3.83;;;;;;;;;;5113052;28;20200;-78
2024/01/24 02:01:06;;;;;;;5.83;4.40;;;;;;;;;;5112680;28;20200;-78
2024/01/24 02:03:33;;;;;;;3.87;3.43;;;;;;;;;;5113135;28;20264;-78
2024/01/24 02:06:02;;;;;;;4.77;4.20;;;;;;;;;;5112532;28;20223;-78
2024/01/24 02:08:31;;;;;;;6.73;4.63;;;;;;;;;;5112786;28;20229;-78
2024/01/24 02:10:59;;;;;;;5.73;4.00;;;;;;;;;;5112630;28;20248;-79
2024/01/24 02:13:30;;;;;;;7.43;4.57;;;;;;;;;;5113005;28;20203;-78
2024/01/24 02:15:56;;;;;;;5.83;3.90;;;;;;;;;;5112420;28;20238;-79
2024/01/24 02:18:23;;;;;;;5.53;4.70;;;;;;;;;;5113276;28;20284;-78
2024/01/24 02:20:50;;;;;;;4.23;3.47;;;;;;;;;;5112395;28;20198;-78
2024/01/24 02:23:18;;;;;;;4.10;3.70;;;;;;;;;;5112361;28;20202;-78
2024/01/24 02:25:49;;;;;;;5.90;4.43;;;;;;;;;;5112294;28;20697;-78
2024/01/24 02:28:17;;;;;;;5.70;4.87;;;;;;;;;;5112143;28;20567;-78
2024/01/24 02:30:44;;;;;;;4.63;4.07;;;;;;;;;;5112098;28;20219;-78
2024/01/24 02:33:11;;;;;;;5.77;4.73;;;;;;;;;;5112213;28;20234;-78
2024/01/24 02:35:37;;;;;;;5.43;4.40;;;;;;;;;;5112135;28;20203;-78
2024/01/24 02:38:05;;;;;;;5.47;3.77;;;;;;;;;;5112356;28;20207;-78
2024/01/24 02:40:32;;;;;;;7.00;4.07;;;;;;;;;;5098871;28;20200;-78
2024/01/24 02:43:00;;;;;;;4.97;4.00;;;;;;;;;;5111554;28;20203;-78
2024/01/24 02:45:27;;;;;;;4.70;4.13;;;;;;;;;;5111954;28;20235;-78
2024/01/24 02:47:56;;;;;;;4.57;4.07;;;;;;;;;;5111167;28;20620;-78
2024/01/24 02:50:23;;;;;;;6.27;4.10;;;;;;;;;;5112207;28;20203;-78
2024/01/24 02:52:50;;;;;;;4.70;3.80;;;;;;;;;;5110987;28;20203;-78
2024/01/24 02:55:17;;;;;;;4.20;3.67;;;;;;;;;;5112330;28;20196;-78
2024/01/24 02:57:44;;;;;;;5.30;3.63;;;;;;;;;;5111983;28;20196;-78
2024/01/24 03:00:13;;;;;;;5.87;4.10;;;;;;;;;;5111729;28;20191;-78
2024/01/24 03:02:40;;;;;;;5.47;3.73;;;;;;;;;;5111505;28;20227;-77
2024/01/24 03:05:08;;;;;;;5.13;3.53;;;;;;;;;;5111760;28;20223;-78
2024/01/24 03:07:36;;;;;;;3.93;3.50;;;;;;;;;;5111150;28;20199;-78
2024/01/24 03:10:03;;;;;;;5.77;4.53;;;;;;;;;;5111959;28;20195;-78
2024/01/24 03:12:30;;;;;;;5.67;4.23;;;;;;;;;;5111243;28;20211;-78
2024/01/24 03:14:57;;;;;;;6.43;5.07;;;;;;;;;;5111327;28;20203;-77
2024/01/24 03:17:25;;;;;;;6.67;5.90;;;;;;;;;;5111509;28;20199;-78
2024/01/24 03:19:52;;;;;;;16.40;10.87;;;;;;;;;;5111507;28;20249;-77
2024/01/24 03:22:20;;;;;;;12.63;11.33;;;;;;;;;;5110931;28;20237;-78
2024/01/24 03:24:47;;;;;;;4.97;4.47;;;;;;;;;;5111536;28;20229;-78
2024/01/24 03:27:13;;;;;;;6.60;5.50;;;;;;;;;;5111356;28;20204;-77
2024/01/24 03:29:42;;;;;;;6.63;5.57;;;;;;;;;;5110494;28;20234;-78
2024/01/24 03:32:09;;;;;;;6.43;5.10;;;;;;;;;;5111771;28;20199;-78
2024/01/24 03:34:37;;;;;;;11.17;8.27;;;;;;;;;;5111259;28;20195;-78
2024/01/24 03:37:04;;;;;;;118.10;48.10;;;;;;;;;;5110917;28;20225;-78
2024/01/24 03:39:31;;;;;;;80.80;41.57;;;;;;;;;;5111114;28;20238;-78
2024/01/24 03:41:58;;;;;;;33.63;17.43;;;;;;;;;;5111031;28;20199;-77
2024/01/24 03:44:24;;;;;;;13.50;7.93;;;;;;;;;;5110924;28;20210;-77
2024/01/24 03:46:51;;;;;;;8.37;5.47;;;;;;;;;;5110791;28;20215;-77
2024/01/24 03:49:20;;;;;;;15.73;9.10;;;;;;;;;;5110884;28;20670;-78
2024/01/24 03:51:48;;;;;;;40.67;26.83;;;;;;;;;;5110956;28;20195;-77
2024/01/24 03:54:15;;;;;;;41.07;27.83;;;;;;;;;;5110861;28;20206;-78
2024/01/24 03:56:42;;;;;;;33.67;22.90;;;;;;;;;;5111416;28;20257;-78
2024/01/24 03:59:09;;;;;;;19.37;12.90;;;;;;;;;;5112919;28;20206;-77
2024/01/24 04:01:36;;;;;;;46.07;29.83;;;;;;;;;;5115012;28;20206;-78
2024/01/24 04:04:03;;;;;;;66.20;40.70;;;;;;;;;;5114816;28;20252;-78
2024/01/24 04:06:30;;;;;;;79.70;52.20;;;;;;;;;;5115107;28;20230;-77
2024/01/24 04:08:58;;;;;;;44.67;28.70;;;;;;;;;;5114958;28;20753;-77
2024/01/24 04:11:25;;;;;;;17.53;12.67;;;;;;;;;;5101556;28;20596;-77
2024/01/24 04:13:53;;;;;;;11.07;7.70;;;;;;;;;;5114503;28;20199;-77
2024/01/24 04:16:20;;;;;;;8.33;5.83;;;;;;;;;;5115236;28;20204;-77
2024/01/24 04:18:46;;;;;;;11.43;4.93;;;;;;;;;;5114558;28;20196;-77
2024/01/24 04:21:13;;;;;;;7.63;4.47;;;;;;;;;;5114891;28;20635;-77
2024/01/24 04:23:40;;;;;;;6.53;4.70;;;;;;;;;;5114227;28;20203;-77
2024/01/24 04:26:08;;;;;;;6.07;4.90;;;;;;;;;;5114526;28;20713;-77
2024/01/24 04:28:35;;;;;;;5.23;3.87;;;;;;;;;;5114557;28;20203;-77
2024/01/24 04:31:02;;;;;;;7.50;4.73;;;;;;;;;;5115132;28;20207;-77
2024/01/24 04:33:29;;;;;;;8.17;5.37;;;;;;;;;;5113994;28;20212;-77
2024/01/24 04:35:58;;;;;;;6.07;5.17;;;;;;;;;;5114499;28;20203;-77
2024/01/24 04:38:25;;;;;;;5.77;5.03;;;;;;;;;;5114008;28;20692;-77
2024/01/24 04:40:52;;;;;;;6.33;5.27;;;;;;;;;;5114439;28;20212;-77
2024/01/24 04:43:20;;;;;;;5.63;4.73;;;;;;;;;;5114106;28;20207;-77
2024/01/24 04:45:48;;;;;;;5.13;4.10;;;;;;;;;;5114732;28;20580;-77
2024/01/24 04:48:16;;;;;;;4.57;4.07;;;;;;;;;;5114041;28;20591;-77
2024/01/24 04:50:43;;;;;;;7.23;4.17;;;;;;;;;;5114601;28;20200;-77
2024/01/24 04:53:10;;;;;;;5.97;4.83;;;;;;;;;;5113838;28;20596;-77
2024/01/24 04:55:36;;;;;;;6.57;4.33;;;;;;;;;;5114159;28;20260;-77
2024/01/24 04:58:04;;;;;;;8.03;4.70;;;;;;;;;;5113569;28;20198;-77
2024/01/24 05:00:32;;;;;;;5.47;4.30;;;;;;;;;;5114546;28;20227;-77
2024/01/24 05:03:00;;;;;;;6.27;4.60;;;;;;;;;;5113304;28;20196;-77
2024/01/24 05:05:27;;;;;;;6.20;4.97;;;;;;;;;;5114654;28;20222;-76
2024/01/24 05:07:56;;;;;;;6.27;4.97;;;;;;;;;;5113547;28;20708;-77
2024/01/24 05:10:24;;;;;;;5.97;5.37;;;;;;;;;;5112327;28;20566;-77
2024/01/24 05:12:50;;;;;;;6.27;5.43;;;;;;;;;;5113921;28;20199;-77
2024/01/24 05:15:17;;;;;;;7.57;4.23;;;;;;;;;;5114275;28;20272;-77
2024/01/24 05:17:45;;;;;;;7.60;5.10;;;;;;;;;;5113514;28;20558;-77
2024/01/24 05:20:12;;;;;;;6.33;4.80;;;;;;;;;;5113733;28;20694;-77
2024/01/24 05:22:39;;;;;;;7.33;4.73;;;;;;;;;;5113658;28;20678;-77
2024/01/24 05:25:06;;;;;;;5.43;4.93;;;;;;;;;;5113684;28;20332;-77
2024/01/24 05:27:33;;;;;;;10.43;5.77;;;;;;;;;;5114061;28;20203;-77
2024/01/24 05:30:00;;;;;;;8.33;6.30;;;;;;;;;;5113015;28;20656;-77
2024/01/24 05:32:27;;;;;;;7.97;6.23;;;;;;;;;;5113145;28;20253;-77
2024/01/24 05:34:57;;;;;;;8.07;5.90;;;;;;;;;;5113529;28;20200;-77
2024/01/24 05:37:24;;;;;;;7.23;5.60;;;;;;;;;;5113246;28;20203;-77
2024/01/24 05:39:51;;;;;;;6.03;5.43;;;;;;;;;;5113172;28;20207;-77
2024/01/24 05:42:18;;;;;;;5.33;4.83;;;;;;;;;;5113201;28;20195;-77
2024/01/24 05:44:44;;;;;;;7.97;5.00;;;;;;;;;;5112966;28;20200;-77
2024/01/24 05:47:11;;;;;;;6.27;5.13;;;;;;;;;;5113438;28;20215;-77
2024/01/24 05:49:38;;;;;;;6.33;4.93;;;;;;;;;;5112943;28;20233;-78
2024/01/24 05:52:07;;;;;;;5.97;5.37;;;;;;;;;;5112861;28;20199;-76
2024/01/24 05:54:34;;;;;;;6.53;5.73;;;;;;;;;;5110927;28;20207;-77
2024/01/24 05:57:01;;;;;;;9.43;5.97;;;;;;;;;;5101798;28;20295;-77
2024/01/24 05:59:27;;;;;;;6.30;4.90;;;;;;;;;;5112885;28;20219;-77
2024/01/24 06:01:55;;;;;;;37.60;19.97;;;;;;;;;;5112924;28;20204;-77
2024/01/24 06:04:21;;;;;;;20.43;12.87;;;;;;;;;;5112913;28;20203;-77
2024/01/24 06:06:48;;;;;;;21.20;12.97;;;;;;;;;;5112755;28;20230;-76
2024/01/24 06:09:20;;;;;;;15.90;9.40;;;;;;;;;;5112325;28;20204;-77
2024/01/24 06:11:48;;;;;;;23.67;15.90;;;;;;;;;;5112457;28;20200;-77
2024/01/24 06:14:15;;;;;;;26.30;16.53;;;;;;;;;;5112851;28;20223;-77
2024/01/24 06:16:41;;;;;;;46.20;26.50;;;;;;;;;;5112848;28;20199;-77
2024/01/24 06:19:09;;;;;;;19.47;13.67;;;;;;;;;;5111941;28;20199;-77
2024/01/24 06:21:35;;;;;;;16.77;10.80;;;;;;;;;;5112713;28;20199;-77
2024/01/24 06:24:02;;;;;;;14.07;10.33;;;;;;;;;;5112137;28;20282;-77
2024/01/24 06:26:30;;;;;;;11.27;9.17;;;;;;;;;;5112592;28;20653;-77
2024/01/24 06:28:57;;;;;;;13.50;9.73;;;;;;;;;;5111906;28;20224;-77
2024/01/24 06:31:24;;;;;;;9.10;6.90;;;;;;;;;;5112296;28;20613;-77
2024/01/24 06:33:51;;;;;;;6.63;5.93;;;;;;;;;;5112103;28;20210;-77
2024/01/24 06:36:18;;;;;;;11.30;7.43;;;;;;;;;;5112046;28;20260;-77
2024/01/24 06:38:44;;;;;;;7.60;6.80;;;;;;;;;;5111949;28;20196;-76
2024/01/24 06:41:12;;;;;;;7.50;5.63;;;;;;;;;;5112679;28;20207;-77
2024/01/24 06:43:42;;;;;;;7.50;4.97;;;;;;;;;;5111743;28;20712;-77
2024/01/24 06:46:09;;;;;;;5.63;4.00;;;;;;;;;;5112243;28;20284;-77
2024/01/24 06:48:36;;;;;;;6.97;4.77;;;;;;;;;;5111811;28;20210;-76
2024/01/24 06:51:03;;;;;;;7.17;4.70;;;;;;;;;;5112060;28;20210;-76
2024/01/24 06:53:30;;;;;;;5.47;4.47;;;;;;;;;;5111911;28;20269;-77
2024/01/24 06:55:56;;;;;;;5.23;4.73;;;;;;;;;;5111543;28;20206;-78
2024/01/24 06:58:23;;;;;;;16.23;11.23;;;;;;;;;;5098322;28;20635;-77
2024/01/24 07:00:51;;;;;;;6.57;5.47;;;;;;;;;;5111831;28;20195;-77
2024/01/24 07:03:18;;;;;;;17.83;12.83;;;;;;;;;;5111807;28;20196;-77
2024/01/24 07:05:45;;;;;;;15.90;11.87;;;;;;;;;;5111220;28;20199;-77
2024/01/24 07:08:13;;;;;;;15.73;10.33;;;;;;;;;;5111718;28;20678;-76
2024/01/24 07:10:40;;;;;;;10.77;9.47;;;;;;;;;;5111707;28;20286;-77
2024/01/24 07:13:07;;;;;;;18.33;11.57;;;;;;;;;;5111376;28;20202;-77
2024/01/24 07:15:33;;;;;;;14.27;12.37;;;;;;;;;;5111610;28;20220;-77
2024/01/24 07:18:02;;;;;;;14.50;10.90;;;;;;;;;;5111417;28;20682;-77
2024/01/24 07:20:29;;;;;;;12.13;9.90;;;;;;;;;;5111622;28;20241;-77
2024/01/24 07:22:56;;;;;;;10.83;9.57;;;;;;;;;;5110930;28;20207;-77
2024/01/24 07:25:24;;;;;;;11.50;10.30;;;;;;;;;;5111444;28;20204;-77
2024/01/24 07:27:51;;;;;;;12.57;9.53;;;;;;;;;;5111217;28;20605;-78
2024/01/24 07:30:18;;;;;;;12.87;9.50;;;;;;;;;;5111609;28;20659;-77
2024/01/24 07:32:44;;;;;;;11.53;9.80;;;;;;;;;;5110409;28;20195;-77
2024/01/24 07:35:12;;;;;;;22.37;16.13;;;;;;;;;;5111365;28;20203;-76
2024/01/24 07:37:39;;;;;;;14.40;10.80;;;;;;;;;;5111481;28;20192;-76
2024/01/24 07:40:08;;;;;;;16.50;11.77;;;;;;;;;;5111290;28;20204;-77
2024/01/24 07:42:35;;;;;;;13.90;11.23;;;;;;;;;;5110693;28;20236;-76
2024/01/24 07:45:02;;;;;;;12.53;9.67;;;;;;;;;;5111430;28;20206;-76
2024/01/24 07:47:29;;;;;;;12.33;9.60;;;;;;;;;;5111182;28;20219;-76
2024/01/24 07:49:56;;;;;;;15.70;11.27;;;;;;;;;;5110865;28;20745;-76
2024/01/24 07:52:24;;;;;;;11.77;9.83;;;;;;;;;;5110499;28;20203;-76
2024/01/24 07:54:50;;;;;;;13.20;10.63;;;;;;;;;;5110804;28;20264;-76
2024/01/24 07:57:17;;;;;;;7.43;6.60;;;;;;;;;;5111028;28;20200;-77
2024/01/24 07:59:45;;;;;;;7.83;5.50;;;;;;;;;;5110337;28;20269;-77
2024/01/24 08:02:11;;;;;;;7.97;5.00;;;;;;;;;;5111108;28;20199;-77
2024/01/24 08:04:38;;;;;;;10.90;9.70;;;;;;;;;;5110538;28;20206;-77
2024/01/24 08:07:05;;;;;;;8.57;7.57;;;;;;;;;;5110944;28;20659;-77
2024/01/24 08:09:34;;;;;;;8.20;7.23;;;;;;;;;;5110714;28;20241;-77
2024/01/24 08:12:00;;;;;;;8.20;6.80;;;;;;;;;;5111125;28;20199;-77
2024/01/24 08:14:27;;;;;;;7.80;5.77;;;;;;;;;;5110669;28;20203;-77
2024/01/24 08:17:01;;;;;;;11.03;6.37;;;;;;;;;;5111066;28;20207;-77
2024/01/24 08:19:28;;;;;;;7.63;4.43;;;;;;;;;;5097925;28;20206;-77
2024/01/24 08:21:56;;;;;;;7.87;5.03;;;;;;;;;;5110332;28;20647;-77
2024/01/24 08:24:22;;;;;;;5.90;4.63;;;;;;;;;;5111197;28;20206;-77
2024/01/24 08:26:51;;;;;;;6.03;4.80;;;;;;;;;;5110431;28;20656;-77
2024/01/24 08:29:19;;;;;;;10.00;6.50;;;;;;;;;;5110686;28;20613;-77
2024/01/24 08:31:46;;;;;;;16.07;10.30;;;;;;;;;;5110856;28;20203;-78
2024/01/24 08:34:12;;;;;;;9.37;7.50;;;;;;;;;;5110842;28;20192;-77
2024/01/24 08:36:39;;;;;;;5.37;3.90;;;;;;;;;;5109978;28;20257;-77
2024/01/24 08:39:06;;;;;;;5.40;3.93;;;;;;;;;;5110730;28;20204;-77
2024/01/24 08:41:33;;;;;;;5.10;4.50;;;;;;;;;;5110955;28;20238;-77
2024/01/24 08:44:02;;;;;;;10.57;6.47;;;;;;;;;;5110634;28;20652;-77
2024/01/24 08:46:29;;;;;;;7.13;6.20;;;;;;;;;;5113923;28;20262;-77
2024/01/24 08:48:56;;;;;;;5.53;5.03;;;;;;;;;;5114463;28;20249;-77
2024/01/24 08:51:25;;;;;;;5.67;4.97;;;;;;;;;;5114117;28;20199;-77
2024/01/24 08:53:53;;;;;;;5.70;4.83;;;;;;;;;;5114105;28;20227;-77
2024/01/24 08:56:20;;;;;;;5.93;5.07;;;;;;;;;;5113911;28;20196;-77
2024/01/24 08:58:46;;;;;;;5.03;4.27;;;;;;;;;;5113664;28;20260;-78
2024/01/24 09:01:15;;;;;;;4.70;3.80;;;;;;;;;;5114719;28;20697;-77
2024/01/24 09:03:42;;;;;;;6.17;4.40;;;;;;;;;;5114165;28;20199;-77
2024/01/24 09:06:10;;;;;;;6.03;5.07;;;;;;;;;;5113944;28;20666;-77
2024/01/24 09:08:37;;;;;;;6.70;4.17;;;;;;;;;;5113594;28;20658;-77
2024/01/24 09:11:04;;;;;;;7.37;5.33;;;;;;;;;;5113754;28;20196;-77
2024/01/24 09:13:31;;;;;;;5.77;5.23;;;;;;;;;;5113583;28;20214;-77
2024/01/24 09:15:58;;;;;;;6.50;4.60;;;;;;;;;;5114169;28;20230;-77
2024/01/24 09:18:26;;;;;;;4.97;4.07;;;;;;;;;;5113799;28;20203;-78
2024/01/24 09:20:56;;;;;;;8.33;4.80;;;;;;;;;;5113484;28;20290;-78
2024/01/24 09:23:23;;;;;;;6.90;4.77;;;;;;;;;;5114101;28;20735;-78
2024/01/24 09:25:50;;;;;;;5.53;4.37;;;;;;;;;;5113853;28;20257;-78
2024/01/24 09:28:16;;;;;;;6.80;5.07;;;;;;;;;;5113246;28;20222;-78
2024/01/24 09:30:43;;;;;;;4.23;3.60;;;;;;;;;;5113994;28;20227;-77
2024/01/24 09:33:10;;;;;;;5.83;3.90;;;;;;;;;;5113670;28;20226;-77
2024/01/24 09:35:40;;;;;;;8.30;4.50;;;;;;;;;;5113664;28;20260;-77
2024/01/24 09:38:07;;;;;;;4.27;3.80;;;;;;;;;;5113064;28;20641;-78
2024/01/24 09:40:33;;;;;;;5.50;4.50;;;;;;;;;;5113427;28;20218;-77
2024/01/24 09:43:02;;;;;;;12.67;9.07;;;;;;;;;;5113455;28;20210;-78
2024/01/24 09:45:29;;;;;;;6.27;4.47;;;;;;;;;;5113712;28;20207;-78
2024/01/24 09:47:58;;;;;;;4.33;3.33;;;;;;;;;;5112345;28;20248;-77
2024/01/24 09:50:25;;;;;;;5.77;4.50;;;;;;;;;;5113082;28;20200;-78
2024/01/24 09:53:02;;;;;;;8.70;5.87;;;;;;;;;;5113310;28;20272;-78
2024/01/24 09:55:31;;;;;;;5.60;4.20;;;;;;;;;;5113491;28;20207;-77
2024/01/24 09:57:59;;;;;;;5.93;5.30;;;;;;;;;;5112388;28;20290;-77
2024/01/24 10:00:26;;;;;;;7.77;6.60;;;;;;;;;;5113065;28;20272;-78
2024/01/24 10:02:56;;;;;;;6.80;5.57;;;;;;;;;;5112684;28;20252;-78
2024/01/24 10:05:22;;;;;;;5.47;4.93;;;;;;;;;;5112800;28;20199;-78
2024/01/24 10:07:51;;;;;;;26.13;11.57;;;;;;;;;;5112704;28;20215;-78
2024/01/24 10:10:19;;;;;;;31.53;18.07;;;;;;;;;;5113119;28;20215;-77
2024/01/24 10:12:46;;;;;;;21.83;12.07;;;;;;;;;;5112723;28;20210;-77
2024/01/24 10:15:13;;;;;;;14.87;8.33;;;;;;;;;;5112825;28;20685;-77
2024/01/24 10:17:41;;;;;;;13.13;7.60;;;;;;;;;;5112276;28;20200;-77
2024/01/24 10:20:11;;;;;;;25.07;12.93;;;;;;;;;;5112421;28;20219;-77
2024/01/24 10:22:38;;;;;;;32.50;18.30;;;;;;;;;;5112672;28;20203;-77
2024/01/24 10:25:06;;;;;;;23.50;15.87;;;;;;;;;;5112403;28;20238;-77
2024/01/24 10:27:35;;;;;;;12.83;9.00;;;;;;;;;;5111701;28;20225;-77
2024/01/24 10:30:02;;;;;;;12.13;7.60;;;;;;;;;;5112667;28;20227;-78
2024/01/24 10:32:29;;;;;;;6.13;4.93;;;;;;;;;;5111734;28;20693;-77
2024/01/24 10:34:56;;;;;;;7.90;4.73;;;;;;;;;;5112233;28;20215;-78
2024/01/24 10:37:23;;;;;;;8.57;5.67;;;;;;;;;;5112343;28;20203;-77
2024/01/24 10:39:51;;;;;;;6.23;4.77;;;;;;;;;;5111478;28;20206;-78
2024/01/24 10:42:19;;;;;;;10.83;7.73;;;;;;;;;;5099796;28;20199;-77
2024/01/24 10:44:49;;;;;;;8.93;5.77;;;;;;;;;;5112368;28;20290;-77
2024/01/24 10:47:17;;;;;;;6.07;4.90;;;;;;;;;;5112216;28;20269;-77
2024/01/24 10:49:44;;;;;;;33.67;17.30;;;;;;;;;;5111459;28;20295;-77
2024/01/24 10:52:11;;;;;;;11.23;8.57;;;;;;;;;;5112118;28;20693;-77
2024/01/24 10:54:38;;;;;;;21.80;14.57;;;;;;;;;;5111294;28;20212;-77
2024/01/24 10:57:07;;;;;;;4.37;3.70;;;;;;;;;;5111891;28;20295;-77
2024/01/24 10:59:34;;;;;;;7.80;5.93;;;;;;;;;;5111265;28;20248;-77
2024/01/24 11:02:03;;;;;;;5.03;4.53;;;;;;;;;;5112183;28;20207;-77
2024/01/24 11:04:30;;;;;;;5.00;4.40;;;;;;;;;;5111406;28;20200;-77
2024/01/24 11:06:59;;;;;;;3.73;3.33;;;;;;;;;;5112278;28;20203;-77
2024/01/24 11:09:31;;;;;;;3.83;3.50;;;;;;;;;;5110831;28;20642;-77
2024/01/24 11:11:59;;;;;;;6.17;5.13;;;;;;;;;;5112175;28;20207;-77
2024/01/24 11:14:30;;;;;;;4.50;4.03;;;;;;;;;;5111257;28;20700;-77
2024/01/24 11:16:58;;;;;;;6.70;6.00;;;;;;;;;;5111704;28;20203;-77
2024/01/24 11:19:28;;;;;;;4.80;4.07;;;;;;;;;;5111129;28;20256;-77
2024/01/24 11:22:00;;;;;;;4.70;4.07;;;;;;;;;;5110668;28;20203;-78
2024/01/24 11:24:48;;;;;;;5.57;3.67;;;;;;;;;;5111148;28;20235;-77
2024/01/24 11:27:30;;;;;;;6.90;5.17;;;;;;;;;;5111450;28;20219;-77
2024/01/24 11:29:57;;;;;;;3.33;3.03;;;;;;;;;;5111358;28;20631;-77
2024/01/24 11:32:58;;;;;;;4.80;4.17;;;;;;;;;;5111200;28;20230;-78
2024/01/24 11:35:33;;;;;;;3.90;3.27;;;;;;;;;;5111583;28;20199;-78
2024/01/24 11:38:00;;;;;;;6.70;3.70;;;;;;;;;;5111131;28;20210;-77
2024/01/24 11:40:27;;;;;;;6.20;5.10;;;;;;;;;;5111409;28;20207;-77
2024/01/24 11:42:53;;;;;;;5.63;3.83;;;;;;;;;;5111265;28;20206;-77
2024/01/24 11:45:22;;;;;;;5.43;3.30;;;;;;;;;;5111038;28;20210;-77
2024/01/24 11:47:49;;;;;;;7.53;5.77;;;;;;;;;;5110912;28;20215;-77
2024/01/24 11:50:16;;;;;;;4.03;3.63;;;;;;;;;;5111230;28;20200;-77
2024/01/24 11:52:45;;;;;;;4.83;4.33;;;;;;;;;;5110587;28;20701;-77
2024/01/24 11:55:13;;;;;;;4.93;3.83;;;;;;;;;;5111015;28;20223;-77
2024/01/24 11:57:39;;;;;;;4.63;3.93;;;;;;;;;;5110886;28;20669;-77
2024/01/24 12:00:09;;;;;;;8.03;5.20;;;;;;;;;;5110731;28;20206;-77
2024/01/24 12:02:36;;;;;;;5.07;4.57;;;;;;;;;;5110754;28;20276;-77
2024/01/24 12:05:03;;;;;;;3.43;3.13;;;;;;;;;;5110949;28;20202;-76
2024/01/24 12:07:30;;;;;;;3.60;3.30;;;;;;;;;;5110922;28;20694;-77
2024/01/24 12:09:58;;;;;;;4.43;3.23;;;;;;;;;;5110365;28;20203;-77
2024/01/24 12:12:26;;;;;;;6.27;4.40;;;;;;;;;;5110883;28;20204;-77
2024/01/24 12:14:53;;;;;;;6.43;4.10;;;;;;;;;;5110820;28;20200;-77
2024/01/24 12:17:22;;;;;;;3.93;3.10;;;;;;;;;;5110926;28;20295;-77
2024/01/24 12:19:49;;;;;;;4.47;4.03;;;;;;;;;;5112267;28;20192;-76
2024/01/24 12:22:16;;;;;;;4.97;3.67;;;;;;;;;;5115081;28;20223;-77
2024/01/24 12:24:43;;;;;;;4.17;3.13;;;;;;;;;;5114666;28;20697;-77
2024/01/24 12:27:12;;;;;;;5.77;3.23;;;;;;;;;;5114771;28;20207;-77
2024/01/24 12:29:38;;;;;;;4.10;3.70;;;;;;;;;;5114509;28;20219;-77
2024/01/24 12:32:08;;;;;;;5.73;3.57;;;;;;;;;;5114804;28;20195;-77
2024/01/24 12:34:35;;;;;;;4.40;3.80;;;;;;;;;;5114690;28;20203;-77
2024/01/24 12:37:02;;;;;;;5.53;3.50;;;;;;;;;;5114601;28;20192;-77
2024/01/24 12:39:31;;;;;;;6.23;3.97;;;;;;;;;;5114313;28;20200;-77
2024/01/24 12:41:58;;;;;;;13.43;8.23;;;;;;;;;;5114501;28;20203;-77
2024/01/24 12:44:26;;;;;;;7.93;5.93;;;;;;;;;;5114509;28;20600;-77
2024/01/24 12:46:57;;;;;;;19.07;10.83;;;;;;;;;;5114151;28;20200;-76
2024/01/24 12:49:24;;;;;;;11.13;6.97;;;;;;;;;;5101315;28;20315;-76
2024/01/24 12:51:51;;;;;;;5.80;5.17;;;;;;;;;;5114769;28;20284;-77
2024/01/24 12:54:18;;;;;;;8.63;7.13;;;;;;;;;;5113850;28;20279;-77
2024/01/24 12:56:47;;;;;;;3.80;3.40;;;;;;;;;;5114822;28;20203;-76
2024/01/24 12:59:17;;;;;;;5.70;4.30;;;;;;;;;;5114099;28;20660;-77
2024/01/24 13:01:46;;;;;;;3.97;3.20;;;;;;;;;;5114295;28;20207;-77
2024/01/24 13:04:13;;;;;;;5.67;3.57;;;;;;;;;;5113520;28;20669;-77
2024/01/24 13:06:40;;;;;;;6.57;4.43;;;;;;;;;;5114560;28;20203;-77
2024/01/24 13:09:08;;;;;;;3.73;3.30;;;;;;;;;;5113926;28;20249;-77
2024/01/24 13:11:35;;;;;;;6.00;3.60;;;;;;;;;;5114362;28;20278;-77
2024/01/24 13:14:01;;;;;;;4.30;3.73;;;;;;;;;;5113376;28;20199;-77
2024/01/24 13:16:28;;;;;;;3.63;3.27;;;;;;;;;;5114340;28;20576;-77
2024/01/24 13:18:56;;;;;;;3.60;3.30;;;;;;;;;;5113428;28;20203;-77
2024/01/24 13:21:23;;;;;;;5.67;4.87;;;;;;;;;;5113770;28;20202;-76
2024/01/24 13:23:51;;;;;;;16.13;10.17;;;;;;;;;;5112938;28;20204;-76
2024/01/24 13:26:18;;;;;;;4.57;3.73;;;;;;;;;;5114149;28;20195;-76
2024/01/24 13:28:44;;;;;;;7.83;5.70;;;;;;;;;;5113341;28;20227;-76
2024/01/24 13:31:11;;;;;;;4.73;4.23;;;;;;;;;;5112750;28;20196;-76
2024/01/24 13:33:40;;;;;;;14.60;8.90;;;;;;;;;;5113308;28;20588;-77
2024/01/24 13:36:08;;;;;;;14.87;9.40;;;;;;;;;;5114035;28;20203;-77
2024/01/24 13:38:35;;;;;;;4.73;3.90;;;;;;;;;;5113165;28;20196;-76
2024/01/24 13:41:03;;;;;;;4.23;3.77;;;;;;;;;;5113835;28;20199;-77
2024/01/24 13:43:29;;;;;;;3.20;2.67;;;;;;;;;;5113089;28;20195;-77
2024/01/24 13:45:56;;;;;;;4.43;3.93;;;;;;;;;;5113356;28;20200;-77
2024/01/24 13:48:23;;;;;;;5.10;3.17;;;;;;;;;;5113105;28;20586;-76
2024/01/24 13:50:50;;;;;;;3.83;2.83;;;;;;;;;;5113267;28;20292;-76
2024/01/24 13:53:21;;;;;;;8.50;5.47;;;;;;;;;;5113119;28;20227;-77
2024/01/24 13:55:47;;;;;;;3.97;3.57;;;;;;;;;;5113548;28;20208;-76
2024/01/24 13:58:14;;;;;;;4.47;4.03;;;;;;;;;;5113042;28;20287;-77
2024/01/24 14:00:41;;;;;;;5.40;3.77;;;;;;;;;;5112994;28;20196;-77
2024/01/24 14:03:08;;;;;;;2.93;2.57;;;;;;;;;;5112595;28;20298;-77
2024/01/24 14:05:35;;;;;;;5.47;4.30;;;;;;;;;;5112994;28;20207;-77
2024/01/24 14:08:02;;;;;;;8.83;5.90;;;;;;;;;;5112490;28;20670;-77
2024/01/24 14:10:30;;;;;;;10.17;6.40;;;;;;;;;;5112608;28;20228;-77
2024/01/24 14:12:57;;;;;;;5.97;3.70;;;;;;;;;;5113035;28;20689;-77
2024/01/24 14:15:24;;;;;;;4.57;3.00;;;;;;;;;;5112587;28;20592;-77
2024/01/24 14:17:51;;;;;;;4.07;2.87;;;;;;;;;;5112840;28;20226;-77
2024/01/24 14:20:18;;;;;;;5.73;3.80;;;;;;;;;;5113022;28;20207;-77
2024/01/24 14:22:45;;;;;;;5.77;3.60;;;;;;;;;;5112621;28;20593;-77
2024/01/24 14:25:11;;;;;;;6.00;3.60;;;;;;;;;;5112646;28;20210;-77
2024/01/24 14:27:42;;;;;;;4.83;3.50;;;;;;;;;;5112809;28;20230;-77
2024/01/24 14:30:10;;;;;;;3.70;3.17;;;;;;;;;;5111851;28;20304;-77
2024/01/24 14:32:38;;;;;;;3.60;3.30;;;;;;;;;;5112772;28;20222;-77
2024/01/24 14:35:05;;;;;;;4.23;3.27;;;;;;;;;;5112604;28;20200;-77
2024/01/24 14:37:32;;;;;;;4.47;3.43;;;;;;;;;;5112438;28;20257;-77
2024/01/24 14:39:59;;;;;;;6.23;4.27;;;;;;;;;;5111632;28;20678;-77